createdAt,value
2018-07-07T00:00:21.913Z,2.63
2018-07-07T00:02:50.540Z,2.00
2018-07-07T00:05:19.082Z,2.10
2018-07-07T00:07:47.648Z,3.07
2018-07-07T00:10:16.783Z,2.83
2018-07-07T00:12:45.671Z,2.70
2018-07-07T00:15:17.310Z,2.30
2018-07-07T00:17:46.349Z,2.30
2018-07-07T00:20:15.439Z,2.00
2018-07-07T00:22:43.975Z,2.30
2018-07-07T00:25:13.244Z,2.43
2018-07-07T00:27:41.950Z,2.80
2018-07-07T00:30:10.466Z,2.00
2018-07-07T00:32:39.012Z,2.07
2018-07-07T00:35:08.103Z,2.40
2018-07-07T00:37:36.627Z,1.90
2018-07-07T00:40:05.255Z,2.07
2018-07-07T00:42:33.902Z,2.50
2018-07-07T00:45:02.414Z,2.37
2018-07-07T00:47:30.917Z,2.40
2018-07-07T00:49:59.467Z,2.50
2018-07-07T00:52:27.997Z,2.47
2018-07-07T00:54:56.602Z,2.37
2018-07-07T00:57:25.339Z,3.03
2018-07-07T00:59:54.290Z,2.73
2018-07-07T01:02:23.871Z,2.73
2018-07-07T01:04:53.670Z,2.10
2018-07-07T01:07:22.818Z,2.50
2018-07-07T01:09:51.485Z,2.30
2018-07-07T01:12:20.354Z,3.17
2018-07-07T01:14:49.432Z,2.40
2018-07-07T01:17:18.092Z,1.97
2018-07-07T01:19:46.632Z,2.63
2018-07-07T01:22:15.404Z,2.80
2018-07-07T01:24:44.348Z,2.30
2018-07-07T01:27:12.855Z,2.10
2018-07-07T01:29:42.056Z,2.67
2018-07-07T01:32:10.936Z,2.90
2018-07-07T01:34:39.546Z,1.90
2018-07-07T01:37:08.103Z,2.30
2018-07-07T01:39:36.690Z,1.80
2018-07-07T01:42:05.645Z,2.70
2018-07-07T01:44:34.170Z,3.00
2018-07-07T01:47:02.853Z,2.23
2018-07-07T01:49:31.382Z,3.00
2018-07-07T01:51:59.883Z,2.47
2018-07-07T01:54:28.854Z,2.90
2018-07-07T01:56:57.353Z,2.83
2018-07-07T01:59:26.970Z,2.70
2018-07-07T02:01:55.470Z,2.93
2018-07-07T02:04:24.011Z,2.40
2018-07-07T02:06:52.618Z,3.00
2018-07-07T02:09:21.194Z,2.90
2018-07-07T02:11:49.730Z,2.50
2018-07-07T02:14:18.249Z,2.63
2018-07-07T02:16:47.073Z,3.10
2018-07-07T02:19:17.654Z,2.73
2018-07-07T02:21:46.707Z,3.50
2018-07-07T02:24:15.493Z,2.37
2018-07-07T02:26:44.063Z,2.63
2018-07-07T02:29:12.821Z,2.30
2018-07-07T02:31:41.808Z,2.63
2018-07-07T02:34:10.454Z,2.70
2018-07-07T02:36:39.017Z,3.33
2018-07-07T02:39:07.628Z,3.40
2018-07-07T02:41:36.504Z,2.77
2018-07-07T02:44:05.201Z,4.00
2018-07-07T02:46:33.786Z,2.63
2018-07-07T02:49:03.224Z,3.10
2018-07-07T02:51:31.740Z,3.50
2018-07-07T02:54:00.341Z,3.13
2018-07-07T02:56:28.823Z,3.00
2018-07-07T02:58:57.373Z,4.10
2018-07-07T03:01:25.913Z,4.00
2018-07-07T03:03:54.433Z,3.60
2018-07-07T03:06:23.174Z,2.90
2018-07-07T03:08:51.770Z,3.17
2018-07-07T03:11:20.506Z,2.63
2018-07-07T03:13:49.146Z,3.30
2018-07-07T03:16:17.646Z,3.97
2018-07-07T03:18:46.125Z,3.37
2018-07-07T03:21:14.740Z,3.87
2018-07-07T03:23:43.210Z,3.73
2018-07-07T03:26:11.743Z,3.10
2018-07-07T03:28:40.529Z,3.80
2018-07-07T03:31:09.047Z,3.37
2018-07-07T03:33:37.567Z,4.20
2018-07-07T03:36:06.263Z,3.77
2018-07-07T03:38:34.753Z,3.30
2018-07-07T03:41:03.299Z,3.77
2018-07-07T03:43:31.845Z,2.90
2018-07-07T03:46:00.340Z,3.50
2018-07-07T03:48:29.355Z,3.03
2018-07-07T03:50:57.823Z,3.10
2018-07-07T03:53:26.386Z,3.00
2018-07-07T03:55:54.951Z,2.80
2018-07-07T03:58:23.459Z,3.27
2018-07-07T04:00:53.271Z,3.30
2018-07-07T04:03:21.825Z,2.60
2018-07-07T04:05:50.730Z,2.90
2018-07-07T04:08:19.274Z,2.70
2018-07-07T04:10:47.881Z,3.17
2018-07-07T04:13:16.410Z,3.53
2018-07-07T04:15:44.927Z,3.20
2018-07-07T04:18:13.467Z,3.20
2018-07-07T04:20:41.995Z,2.93
2018-07-07T04:23:10.539Z,2.97
2018-07-07T04:25:39.037Z,2.60
2018-07-07T04:28:07.562Z,3.30
2018-07-07T04:30:36.101Z,4.73
2018-07-07T04:33:05.027Z,3.77
2018-07-07T04:35:33.574Z,2.50
2018-07-07T04:38:02.081Z,3.00
2018-07-07T04:40:30.813Z,2.77
2018-07-07T04:42:59.723Z,3.83
2018-07-07T04:45:28.226Z,2.97
2018-07-07T04:47:56.767Z,3.57
2018-07-07T04:50:25.381Z,2.33
2018-07-07T04:52:53.874Z,3.00
2018-07-07T04:55:22.678Z,2.37
2018-07-07T04:57:51.269Z,3.47
2018-07-07T05:00:19.798Z,2.60
2018-07-07T05:02:48.640Z,2.33
2018-07-07T05:05:17.412Z,3.00
2018-07-07T05:07:46.153Z,2.90
2018-07-07T05:10:15.456Z,1.83
2018-07-07T05:12:44.057Z,2.50
2018-07-07T05:15:12.882Z,1.90
2018-07-07T05:17:41.371Z,1.30
2018-07-07T05:20:09.854Z,2.60
2018-07-07T05:22:38.709Z,3.90
2018-07-07T05:25:07.186Z,2.33
2018-07-07T05:27:35.696Z,2.40
2018-07-07T05:30:04.661Z,2.57
2018-07-07T05:32:33.169Z,3.30
2018-07-07T05:35:01.702Z,2.37
2018-07-07T05:37:30.240Z,2.87
2018-07-07T05:39:58.763Z,2.40
2018-07-07T05:42:27.289Z,2.20
2018-07-07T05:44:55.850Z,1.97
2018-07-07T05:47:24.370Z,2.30
2018-07-07T05:49:52.912Z,1.80
2018-07-07T05:52:21.430Z,1.80
2018-07-07T05:54:49.919Z,1.83
2018-07-07T05:57:18.494Z,2.43
2018-07-07T05:59:47.101Z,1.53
2018-07-07T06:02:15.621Z,1.80
2018-07-07T06:04:44.125Z,1.97
2018-07-07T06:07:12.617Z,2.20
2018-07-07T06:09:41.157Z,2.17
2018-07-07T06:12:09.937Z,1.70
2018-07-07T06:14:38.561Z,1.77
2018-07-07T06:17:07.069Z,1.70
2018-07-07T06:19:35.605Z,1.87
2018-07-07T06:22:04.162Z,2.03
2018-07-07T06:24:32.649Z,1.53
2018-07-07T06:27:01.133Z,2.07
2018-07-07T06:29:29.800Z,1.63
2018-07-07T06:31:58.292Z,1.90
2018-07-07T06:34:26.817Z,2.07
2018-07-07T06:36:55.629Z,1.90
2018-07-07T06:39:24.295Z,1.90
2018-07-07T06:41:52.887Z,2.10
2018-07-07T06:44:21.369Z,1.63
2018-07-07T06:46:49.853Z,2.20
2018-07-07T06:49:18.389Z,1.30
2018-07-07T06:51:46.871Z,1.80
2018-07-07T06:54:15.495Z,1.80
2018-07-07T06:56:44.024Z,1.63
2018-07-07T06:59:12.535Z,1.80
2018-07-07T07:01:41.474Z,2.00
2018-07-07T07:04:09.966Z,1.20
2018-07-07T07:06:38.446Z,1.87
2018-07-07T07:09:08.997Z,2.33
2018-07-07T07:11:37.527Z,1.20
2018-07-07T07:14:06.240Z,1.27
2018-07-07T07:16:34.743Z,1.10
2018-07-07T07:19:03.533Z,1.07
2018-07-07T07:21:33.085Z,1.27
2018-07-07T07:24:01.764Z,1.30
2018-07-07T07:26:30.315Z,1.93
2018-07-07T07:28:58.861Z,1.30
2018-07-07T07:31:27.360Z,1.00
2018-07-07T07:33:55.844Z,1.93
2018-07-07T07:36:38.991Z,1.97
2018-07-07T07:39:07.552Z,1.77
2018-07-07T07:41:36.066Z,2.03
2018-07-07T07:44:04.543Z,1.70
2018-07-07T07:46:33.587Z,1.40
2018-07-07T07:49:02.100Z,2.17
2018-07-07T07:51:30.626Z,1.97
2018-07-07T07:53:59.189Z,3.10
2018-07-07T07:56:28.629Z,2.10
2018-07-07T07:58:58.062Z,2.20
2018-07-07T08:01:26.864Z,2.20
2018-07-07T08:03:56.034Z,1.40
2018-07-07T08:06:24.588Z,2.40
2018-07-07T08:08:53.161Z,1.80
2018-07-07T08:11:21.751Z,2.00
2018-07-07T08:13:51.416Z,2.30
2018-07-07T08:16:19.877Z,1.80
2018-07-07T08:18:48.883Z,2.53
2018-07-07T08:21:17.374Z,1.90
2018-07-07T08:23:45.969Z,1.60
2018-07-07T08:26:14.477Z,1.87
2018-07-07T08:28:43.469Z,1.40
2018-07-07T08:31:11.946Z,1.50
2018-07-07T08:33:40.411Z,1.80
2018-07-07T08:36:08.961Z,1.77
2018-07-07T08:38:37.416Z,1.90
2018-07-07T08:41:06.139Z,1.77
2018-07-07T08:43:34.672Z,1.20
2018-07-07T08:46:03.163Z,1.30
2018-07-07T08:48:31.651Z,1.50
2018-07-07T08:51:00.209Z,1.80
2018-07-07T08:53:28.696Z,1.73
2018-07-07T08:55:57.444Z,1.23
2018-07-07T08:58:26.050Z,0.97
2018-07-07T09:00:54.644Z,1.00
2018-07-07T09:03:23.427Z,1.40
2018-07-07T09:05:51.904Z,1.13
2018-07-07T09:08:20.387Z,1.60
2018-07-07T09:10:48.996Z,1.50
2018-07-07T09:13:17.873Z,1.60
2018-07-07T09:15:46.325Z,1.17
2018-07-07T09:18:14.812Z,1.43
2018-07-07T09:20:43.344Z,1.80
2018-07-07T09:23:12.165Z,1.50
2018-07-07T09:25:40.684Z,1.73
2018-07-07T09:28:09.165Z,1.20
2018-07-07T09:30:38.110Z,1.93
2018-07-07T09:33:06.649Z,1.70
2018-07-07T09:35:35.129Z,1.60
2018-07-07T09:38:03.657Z,1.10
2018-07-07T09:40:32.131Z,1.60
2018-07-07T09:43:00.809Z,2.67
2018-07-07T09:45:29.340Z,1.50
2018-07-07T09:47:57.824Z,1.73
2018-07-07T09:50:26.782Z,1.73
2018-07-07T09:52:55.329Z,1.57
2018-07-07T09:55:23.853Z,1.90
2018-07-07T09:57:52.402Z,2.23
2018-07-07T10:00:26.160Z,1.70
2018-07-07T10:02:54.886Z,2.30
2018-07-07T10:05:23.471Z,2.13
2018-07-07T10:07:51.925Z,2.37
2018-07-07T10:10:20.593Z,2.33
2018-07-07T10:12:49.072Z,2.30
2018-07-07T10:15:17.546Z,2.37
2018-07-07T10:17:46.105Z,2.43
2018-07-07T10:20:14.598Z,2.30
2018-07-07T10:22:43.357Z,2.03
2018-07-07T10:25:11.856Z,2.20
2018-07-07T10:27:40.356Z,2.10
2018-07-07T10:30:09.425Z,2.17
2018-07-07T10:32:37.890Z,2.17
2018-07-07T10:35:06.474Z,1.70
2018-07-07T10:37:34.964Z,2.40
2018-07-07T10:40:03.952Z,2.17
2018-07-07T10:42:32.441Z,2.37
2018-07-07T10:45:00.996Z,1.87
2018-07-07T10:47:30.016Z,1.90
2018-07-07T10:49:58.464Z,2.80
2018-07-07T10:52:27.028Z,2.20
2018-07-07T10:54:55.592Z,1.97
2018-07-07T10:57:24.146Z,1.83
2018-07-07T10:59:52.828Z,2.00
2018-07-07T11:02:21.349Z,2.00
2018-07-07T11:04:49.825Z,2.40
2018-07-07T11:07:18.394Z,2.00
2018-07-07T11:09:46.864Z,2.20
2018-07-07T11:12:15.484Z,2.23
2018-07-07T11:14:43.953Z,1.73
2018-07-07T11:17:12.440Z,2.07
2018-07-07T11:19:40.951Z,2.20
2018-07-07T11:22:10.027Z,1.60
2018-07-07T11:24:38.517Z,1.60
2018-07-07T11:27:06.989Z,1.97
2018-07-07T11:29:35.488Z,1.67
2018-07-07T11:32:04.076Z,1.87
2018-07-07T11:34:32.618Z,1.70
2018-07-07T11:37:01.177Z,1.83
2018-07-07T11:39:29.853Z,1.70
2018-07-07T11:41:58.404Z,1.60
2018-07-07T11:44:27.036Z,1.87
2018-07-07T11:46:55.641Z,1.97
2018-07-07T11:49:24.195Z,1.80
2018-07-07T11:51:53.181Z,2.20
2018-07-07T11:54:21.702Z,2.00
2018-07-07T11:56:50.175Z,1.70
2018-07-07T11:59:18.714Z,1.57
2018-07-07T12:01:47.205Z,1.70
2018-07-07T12:04:15.744Z,1.73
2018-07-07T12:06:44.216Z,1.60
2018-07-07T12:09:12.865Z,1.63
2018-07-07T12:11:41.614Z,1.87
2018-07-07T12:14:10.039Z,1.60
2018-07-07T12:16:38.504Z,1.63
2018-07-07T12:19:07.013Z,1.73
2018-07-07T12:21:35.514Z,2.20
2018-07-07T12:24:04.061Z,1.87
2018-07-07T12:26:32.563Z,1.43
2018-07-07T12:29:01.118Z,2.17
2018-07-07T12:31:29.753Z,1.60
2018-07-07T12:33:58.219Z,1.50
2018-07-07T12:36:26.980Z,1.93
2018-07-07T12:38:55.550Z,1.73
2018-07-07T12:41:24.314Z,1.50
2018-07-07T12:43:52.793Z,1.93
2018-07-07T12:46:21.310Z,1.67
2018-07-07T12:48:49.835Z,1.67
2018-07-07T12:51:18.350Z,1.60
2018-07-07T12:53:46.886Z,2.10
2018-07-07T12:56:15.361Z,1.53
2018-07-07T12:58:43.854Z,2.43
2018-07-07T13:01:12.464Z,1.73
2018-07-07T13:03:40.906Z,2.00
2018-07-07T13:06:09.390Z,1.80
2018-07-07T13:08:37.857Z,2.10
2018-07-07T13:11:06.793Z,1.77
2018-07-07T13:13:35.282Z,1.43
2018-07-07T13:16:03.809Z,1.80
2018-07-07T13:18:32.394Z,1.83
2018-07-07T13:21:00.970Z,2.70
2018-07-07T13:23:29.684Z,1.67
2018-07-07T13:25:58.237Z,2.00
2018-07-07T13:28:26.932Z,1.60
2018-07-07T13:30:55.520Z,1.90
2018-07-07T13:33:24.222Z,1.77
2018-07-07T13:35:52.693Z,2.10
2018-07-07T13:38:21.162Z,1.50
2018-07-07T13:40:49.658Z,1.90
2018-07-07T13:43:18.257Z,2.50
2018-07-07T13:45:46.826Z,2.20
2018-07-07T13:48:15.813Z,1.97
2018-07-07T13:50:44.328Z,1.80
2018-07-07T13:53:12.803Z,1.60
2018-07-07T13:55:41.714Z,1.70
2018-07-07T13:58:10.194Z,2.07
2018-07-07T14:00:38.670Z,1.57
2018-07-07T14:03:07.602Z,1.43
2018-07-07T14:05:36.086Z,1.70
2018-07-07T14:08:04.590Z,1.70
2018-07-07T14:10:33.233Z,1.67
2018-07-07T14:13:01.726Z,1.80
2018-07-07T14:15:30.308Z,1.67
2018-07-07T14:17:59.101Z,1.27
2018-07-07T14:20:27.621Z,1.20
2018-07-07T14:22:56.241Z,1.80
2018-07-07T14:25:24.796Z,1.63
2018-07-07T14:27:53.321Z,1.30
2018-07-07T14:30:21.840Z,1.60
2018-07-07T14:32:50.547Z,1.50
2018-07-07T14:35:19.062Z,1.60
2018-07-07T14:37:47.634Z,1.20
2018-07-07T14:40:16.172Z,1.50
2018-07-07T14:42:59.430Z,1.50
2018-07-07T14:45:29.997Z,1.57
2018-07-07T14:48:03.258Z,1.20
2018-07-07T14:50:31.769Z,1.33
2018-07-07T14:53:00.356Z,1.40
2018-07-07T14:55:29.705Z,1.43
2018-07-07T14:57:58.601Z,1.63
2018-07-07T15:00:28.589Z,1.77
2018-07-07T15:02:57.929Z,1.20
2018-07-07T15:05:26.428Z,1.40
2018-07-07T15:07:55.181Z,1.60
2018-07-07T15:10:23.856Z,1.37
2018-07-07T15:12:52.421Z,1.50
2018-07-07T15:15:20.913Z,1.50
2018-07-07T15:17:49.440Z,1.27
2018-07-07T15:20:17.931Z,1.40
2018-07-07T15:22:46.543Z,1.53
2018-07-07T15:25:14.974Z,1.57
2018-07-07T15:27:43.486Z,1.27
2018-07-07T15:30:12.009Z,1.80
2018-07-07T15:32:40.501Z,1.30
2018-07-07T15:35:09.016Z,1.40
2018-07-07T15:37:37.529Z,1.70
2018-07-07T15:40:06.395Z,1.30
2018-07-07T15:42:34.909Z,1.43
2018-07-07T15:45:03.753Z,1.30
2018-07-07T15:47:32.273Z,1.20
2018-07-07T15:50:00.816Z,1.47
2018-07-07T15:52:29.389Z,1.60
2018-07-07T15:54:57.885Z,1.23
2018-07-07T15:57:26.850Z,1.47
2018-07-07T15:59:55.622Z,1.30
2018-07-07T16:02:24.117Z,1.60
2018-07-07T16:04:52.593Z,1.40
2018-07-07T16:07:21.215Z,1.53
2018-07-07T16:09:49.780Z,1.40
2018-07-07T16:12:18.243Z,1.60
2018-07-07T16:14:47.124Z,1.80
2018-07-07T16:17:15.612Z,1.90
2018-07-07T16:19:44.120Z,1.93
2018-07-07T16:22:12.769Z,1.53
2018-07-07T16:24:41.265Z,1.30
2018-07-07T16:27:09.761Z,1.50
2018-07-07T16:29:38.387Z,1.33
2018-07-07T16:32:07.121Z,1.47
2018-07-07T16:34:35.655Z,1.87
2018-07-07T16:37:04.190Z,1.53
2018-07-07T16:39:32.721Z,1.77
2018-07-07T16:42:01.637Z,1.60
2018-07-07T16:44:30.305Z,2.50
2018-07-07T16:46:58.961Z,1.30
2018-07-07T16:49:27.656Z,1.73
2018-07-07T16:51:56.219Z,1.70
2018-07-07T16:54:24.735Z,1.30
2018-07-07T16:56:53.702Z,2.00
2018-07-07T16:59:22.189Z,2.50
2018-07-07T17:01:51.898Z,1.57
2018-07-07T17:04:20.921Z,1.63
2018-07-07T17:06:49.783Z,1.70
2018-07-07T17:09:18.929Z,1.63
2018-07-07T17:11:47.733Z,1.70
2018-07-07T17:14:16.180Z,1.50
2018-07-07T17:16:45.857Z,1.70
2018-07-07T17:19:15.932Z,1.60
2018-07-07T17:21:45.706Z,1.50
2018-07-07T17:24:14.794Z,1.73
2018-07-07T17:26:43.558Z,2.33
2018-07-07T17:29:12.082Z,1.33
2018-07-07T17:31:40.589Z,1.60
2018-07-07T17:34:09.107Z,1.50
2018-07-07T17:36:37.913Z,1.67
2018-07-07T17:39:06.389Z,1.60
2018-07-07T17:41:36.032Z,2.07
2018-07-07T17:44:04.505Z,1.90
2018-07-07T17:46:33.026Z,1.67
2018-07-07T17:49:01.604Z,1.57
2018-07-07T17:51:30.693Z,2.40
2018-07-07T17:54:00.770Z,1.40
2018-07-07T17:56:29.532Z,1.43
2018-07-07T17:58:58.277Z,1.50
2018-07-07T18:01:26.843Z,1.30
2018-07-07T18:03:55.553Z,1.63
2018-07-07T18:06:24.109Z,1.43
2018-07-07T18:08:52.573Z,1.23
2018-07-07T18:11:21.606Z,1.57
2018-07-07T18:13:50.189Z,1.77
2018-07-07T18:16:18.709Z,1.67
2018-07-07T18:18:47.349Z,1.50
2018-07-07T18:21:15.837Z,1.77
2018-07-07T18:23:44.355Z,1.50
2018-07-07T18:26:12.881Z,1.33
2018-07-07T18:28:41.477Z,2.30
2018-07-07T18:31:09.996Z,1.40
2018-07-07T18:33:38.498Z,1.40
2018-07-07T18:36:07.262Z,1.40
2018-07-07T18:38:35.756Z,2.37
2018-07-07T18:41:04.212Z,1.27
2018-07-07T18:43:33.022Z,1.63
2018-07-07T18:46:01.524Z,2.43
2018-07-07T18:48:29.985Z,1.30
2018-07-07T18:50:58.643Z,1.20
2018-07-07T18:53:27.148Z,1.83
2018-07-07T18:55:55.792Z,1.53
2018-07-07T18:58:24.277Z,1.47
2018-07-07T19:00:52.821Z,1.70
2018-07-07T19:03:21.586Z,1.70
2018-07-07T19:05:50.074Z,1.67
2018-07-07T19:08:18.746Z,1.43
2018-07-07T19:10:47.251Z,1.40
2018-07-07T19:13:16.205Z,1.97
2018-07-07T19:15:46.469Z,2.37
2018-07-07T19:18:16.361Z,1.60
2018-07-07T19:20:50.237Z,1.50
2018-07-07T19:23:24.077Z,2.10
2018-07-07T19:25:57.864Z,1.77
2018-07-07T19:28:26.394Z,1.50
2018-07-07T19:30:55.007Z,1.90
2018-07-07T19:33:28.703Z,1.47
2018-07-07T19:36:02.735Z,2.13
2018-07-07T19:38:31.227Z,1.57
2018-07-07T19:40:59.843Z,2.03
2018-07-07T19:43:28.392Z,1.80
2018-07-07T19:45:57.114Z,2.00
2018-07-07T19:48:25.617Z,1.93
2018-07-07T19:50:54.314Z,2.30
2018-07-07T19:53:22.794Z,2.40
2018-07-07T19:55:51.278Z,3.50
2018-07-07T19:58:19.886Z,2.10
2018-07-07T20:00:48.461Z,2.20
2018-07-07T20:03:17.134Z,2.60
2018-07-07T20:05:45.632Z,2.70
2018-07-07T20:08:14.214Z,2.80
2018-07-07T20:10:43.231Z,2.30
2018-07-07T20:13:11.807Z,2.20
2018-07-07T20:15:51.552Z,2.20
2018-07-07T20:18:20.065Z,2.27
2018-07-07T20:21:03.884Z,2.37
2018-07-07T20:23:32.353Z,2.60
2018-07-07T20:26:05.032Z,2.47
2018-07-07T20:28:38.798Z,2.60
2018-07-07T20:31:07.294Z,2.87
2018-07-07T20:33:35.858Z,2.10
2018-07-07T20:36:04.313Z,1.80
2018-07-07T20:38:32.824Z,2.33
2018-07-07T20:41:01.314Z,1.80
2018-07-07T20:43:29.924Z,2.20
2018-07-07T20:45:58.404Z,2.00
2018-07-07T20:48:26.863Z,1.50
2018-07-07T20:50:55.382Z,1.80
2018-07-07T20:53:23.873Z,2.10
2018-07-07T20:55:52.462Z,1.83
2018-07-07T20:58:20.960Z,2.30
2018-07-07T21:00:49.453Z,2.00
2018-07-07T21:03:18.001Z,2.50
2018-07-07T21:05:46.673Z,2.23
2018-07-07T21:08:15.187Z,2.10
2018-07-07T21:10:43.970Z,2.70
2018-07-07T21:13:13.289Z,2.03
2018-07-07T21:15:41.878Z,2.27
2018-07-07T21:18:10.378Z,2.23
2018-07-07T21:20:38.859Z,2.10
2018-07-07T21:23:07.360Z,2.03
2018-07-07T21:25:35.858Z,2.40
2018-07-07T21:28:04.363Z,2.50
2018-07-07T21:30:32.894Z,2.17
2018-07-07T21:33:01.352Z,2.20
2018-07-07T21:35:30.245Z,2.13
2018-07-07T21:37:59.259Z,3.40
2018-07-07T21:40:27.725Z,2.20
2018-07-07T21:42:56.266Z,2.77
2018-07-07T21:45:25.133Z,2.43
2018-07-07T21:47:53.588Z,2.63
2018-07-07T21:50:22.153Z,2.70
2018-07-07T21:52:50.653Z,2.10
2018-07-07T21:55:19.192Z,2.83
2018-07-07T21:57:52.853Z,2.70
2018-07-07T22:00:26.653Z,2.63
2018-07-07T22:03:00.456Z,2.93
2018-07-07T22:05:32.485Z,3.37
2018-07-07T22:08:05.434Z,3.37
2018-07-07T22:10:34.137Z,3.57
2018-07-07T22:13:02.625Z,3.87
2018-07-07T22:15:31.126Z,2.63
2018-07-07T22:17:59.618Z,2.90
2018-07-07T22:20:34.803Z,3.03
2018-07-07T22:23:03.479Z,3.10
2018-07-07T22:25:32.006Z,3.40
2018-07-07T22:28:00.777Z,3.00
2018-07-07T22:30:29.253Z,3.60
2018-07-07T22:33:03.309Z,3.07
2018-07-07T22:35:37.226Z,3.30
2018-07-07T22:38:09.842Z,3.53
2018-07-07T22:40:38.370Z,3.33
2018-07-07T22:43:06.990Z,2.93
2018-07-07T22:45:35.934Z,3.50
2018-07-07T22:48:04.393Z,3.00
2018-07-07T22:50:32.865Z,3.10
2018-07-07T22:53:01.522Z,3.17
2018-07-07T22:55:30.028Z,3.63
2018-07-07T22:57:58.530Z,3.57
2018-07-07T23:00:32.405Z,2.50
2018-07-07T23:03:01.417Z,3.00
2018-07-07T23:05:29.982Z,3.10
2018-07-07T23:07:58.572Z,3.57
2018-07-07T23:10:27.078Z,3.67
2018-07-07T23:12:55.661Z,3.87
2018-07-07T23:15:24.249Z,3.50
2018-07-07T23:17:52.750Z,3.87
2018-07-07T23:20:21.254Z,3.30
2018-07-07T23:22:55.273Z,4.20
2018-07-07T23:25:23.893Z,3.50
2018-07-07T23:27:52.781Z,3.30
2018-07-07T23:30:21.761Z,4.70
2018-07-07T23:32:50.917Z,3.80
2018-07-07T23:35:19.727Z,4.03
2018-07-07T23:37:48.255Z,3.90
2018-07-07T23:40:16.781Z,4.53
2018-07-07T23:42:45.399Z,4.23
2018-07-07T23:45:13.925Z,4.00
2018-07-07T23:47:42.917Z,4.17
2018-07-07T23:50:11.507Z,3.53
2018-07-07T23:52:39.993Z,3.70
2018-07-07T23:55:08.686Z,4.20
2018-07-07T23:57:37.152Z,4.30
